sensor_id;sensor_type;location;lat;lon;timestamp;pressure;altitude;pressure_sealevel;temperature;humidity
45888;BME280;31595;51.418;7.572;2023-01-27T00:02:11;100941.47;;;6.20;68.30
45888;BME280;31595;51.418;7.572;2023-01-27T00:04:40;100932.59;;;6.23;68.80
45888;BME280;31595;51.418;7.572;2023-01-27T00:07:07;100942.88;;;6.28;68.00
45888;BME280;31595;51.418;7.572;2023-01-27T00:09:34;100937.91;;;6.30;68.57
45888;BME280;31595;51.418;7.572;2023-01-27T00:12:02;100937.59;;;6.32;67.80
45888;BME280;31595;51.418;7.572;2023-01-27T00:14:46;100932.91;;;6.37;67.67
45888;BME280;31595;51.418;7.572;2023-01-27T00:17:14;100939.53;;;6.36;68.00
45888;BME280;31595;51.418;7.572;2023-01-27T00:19:42;100936.78;;;6.31;68.04
45888;BME280;31595;51.418;7.572;2023-01-27T00:22:09;100937.59;;;6.32;67.54
45888;BME280;31595;51.418;7.572;2023-01-27T00:24:54;100935.13;;;6.30;67.22
45888;BME280;31595;51.418;7.572;2023-01-27T00:27:21;100940.09;;;6.33;67.21
45888;BME280;31595;51.418;7.572;2023-01-27T00:29:49;100932.34;;;6.35;68.07
45888;BME280;31595;51.418;7.572;2023-01-27T00:32:19;100933.47;;;6.29;67.33
45888;BME280;31595;51.418;7.572;2023-01-27T00:35:06;100930.16;;;6.32;67.69
45888;BME280;31595;51.418;7.572;2023-01-27T00:37:33;100924.06;;;6.30;67.52
45888;BME280;31595;51.418;7.572;2023-01-27T00:40:01;100928.47;;;6.36;66.97
45888;BME280;31595;51.418;7.572;2023-01-27T00:42:29;100934.84;;;6.37;67.51
45888;BME280;31595;51.418;7.572;2023-01-27T00:44:56;100941.78;;;6.34;67.17
45888;BME280;31595;51.418;7.572;2023-01-27T00:47:41;100942.34;;;6.41;66.65
45888;BME280;31595;51.418;7.572;2023-01-27T00:50:10;100939.00;;;6.34;67.18
45888;BME280;31595;51.418;7.572;2023-01-27T00:52:38;100942.03;;;6.38;66.53
45888;BME280;31595;51.418;7.572;2023-01-27T00:55:06;100937.91;;;6.45;66.58
45888;BME280;31595;51.418;7.572;2023-01-27T00:57:35;100942.06;;;6.48;66.32
45888;BME280;31595;51.418;7.572;2023-01-27T01:00:03;100952.84;;;6.44;66.70
45888;BME280;31595;51.418;7.572;2023-01-27T01:02:31;100958.94;;;6.46;67.25
45888;BME280;31595;51.418;7.572;2023-01-27T01:04:58;100961.69;;;6.41;67.03
45888;BME280;31595;51.418;7.572;2023-01-27T01:07:28;100958.38;;;6.34;66.94
45888;BME280;31595;51.418;7.572;2023-01-27T01:10:01;100960.84;;;6.30;66.67
45888;BME280;31595;51.418;7.572;2023-01-27T01:12:29;100964.97;;;6.18;66.94
45888;BME280;31595;51.418;7.572;2023-01-27T01:14:57;100965.50;;;6.15;67.74
45888;BME280;31595;51.418;7.572;2023-01-27T01:17:24;100959.97;;;6.15;67.78
45888;BME280;31595;51.418;7.572;2023-01-27T01:19:52;100970.78;;;6.16;68.51
45888;BME280;31595;51.418;7.572;2023-01-27T01:22:20;100963.88;;;6.19;67.96
45888;BME280;31595;51.418;7.572;2023-01-27T01:24:49;100964.97;;;6.23;67.97
45888;BME280;31595;51.418;7.572;2023-01-27T01:27:20;100967.75;;;6.23;67.92
45888;BME280;31595;51.418;7.572;2023-01-27T01:29:52;100972.75;;;6.26;67.95
45888;BME280;31595;51.418;7.572;2023-01-27T01:32:28;100969.13;;;6.25;67.27
45888;BME280;31595;51.418;7.572;2023-01-27T01:35:01;100978.28;;;6.26;67.50
45888;BME280;31595;51.418;7.572;2023-01-27T01:37:43;100972.75;;;6.26;67.13
45888;BME280;31595;51.418;7.572;2023-01-27T01:40:17;100977.16;;;6.22;67.15
45888;BME280;31595;51.418;7.572;2023-01-27T01:42:55;100978.50;;;6.09;67.43
45888;BME280;31595;51.418;7.572;2023-01-27T01:45:45;100980.72;;;6.12;67.05
45888;BME280;31595;51.418;7.572;2023-01-27T01:48:28;100975.16;;;5.97;68.08
45888;BME280;31595;51.418;7.572;2023-01-27T01:51:00;100979.31;;;6.04;67.31
45888;BME280;31595;51.418;7.572;2023-01-27T01:53:34;100978.22;;;6.05;67.56
45888;BME280;31595;51.418;7.572;2023-01-27T01:56:15;100970.47;;;6.07;67.21
45888;BME280;31595;51.418;7.572;2023-01-27T01:58:44;100979.22;;;5.94;68.06
45888;BME280;31595;51.418;7.572;2023-01-27T02:01:19;100972.66;;;5.95;68.11
45888;BME280;31595;51.418;7.572;2023-01-27T02:04:09;100974.81;;;5.93;68.39
45888;BME280;31595;51.418;7.572;2023-01-27T02:06:48;100978.66;;;5.92;68.00
45888;BME280;31595;51.418;7.572;2023-01-27T02:09:24;100970.94;;;5.84;68.25
45888;BME280;31595;51.418;7.572;2023-01-27T02:11:56;100972.88;;;5.88;68.12
45888;BME280;31595;51.418;7.572;2023-01-27T02:14:28;100967.59;;;5.87;68.13
45888;BME280;31595;51.418;7.572;2023-01-27T02:17:09;100963.97;;;5.81;67.89
45888;BME280;31595;51.418;7.572;2023-01-27T02:19:56;100968.72;;;5.86;67.71
45888;BME280;31595;51.418;7.572;2023-01-27T02:22:40;100977.28;;;5.84;67.99
45888;BME280;31595;51.418;7.572;2023-01-27T02:25:14;100972.56;;;5.85;68.24
45888;BME280;31595;51.418;7.572;2023-01-27T02:27:52;100975.91;;;5.87;68.32
45888;BME280;31595;51.418;7.572;2023-01-27T02:30:19;100977.84;;;5.92;67.84
45888;BME280;31595;51.418;7.572;2023-01-27T02:32:47;100969.56;;;5.86;67.74
45888;BME280;31595;51.418;7.572;2023-01-27T02:35:18;100978.16;;;5.90;68.19
45888;BME280;31595;51.418;7.572;2023-01-27T02:37:47;100973.69;;;5.94;68.05
45888;BME280;31595;51.418;7.572;2023-01-27T02:40:16;100977.91;;;5.97;67.82
45888;BME280;31595;51.418;7.572;2023-01-27T02:42:44;100975.41;;;6.00;68.10
45888;BME280;31595;51.418;7.572;2023-01-27T02:45:13;100978.22;;;6.05;67.64
45888;BME280;31595;51.418;7.572;2023-01-27T02:47:40;100984.31;;;6.07;67.57
45888;BME280;31595;51.418;7.572;2023-01-27T02:50:09;100989.81;;;6.02;67.35
45888;BME280;31595;51.418;7.572;2023-01-27T02:52:36;100976.53;;;6.04;67.57
45888;BME280;31595;51.418;7.572;2023-01-27T02:55:04;100988.69;;;5.98;67.74
45888;BME280;31595;51.418;7.572;2023-01-27T02:57:31;100983.19;;;6.03;67.72
45888;BME280;31595;51.418;7.572;2023-01-27T02:59:59;100973.25;;;6.07;67.21
45888;BME280;31595;51.418;7.572;2023-01-27T03:02:28;100974.28;;;5.96;68.47
45888;BME280;31595;51.418;7.572;2023-01-27T03:04:56;100974.59;;;6.00;67.99
45888;BME280;31595;51.418;7.572;2023-01-27T03:07:23;100975.97;;;5.97;67.77
45888;BME280;31595;51.418;7.572;2023-01-27T03:09:51;100975.16;;;6.02;68.31
45888;BME280;31595;51.418;7.572;2023-01-27T03:12:18;100971.53;;;5.96;68.17
45888;BME280;31595;51.418;7.572;2023-01-27T03:14:44;100974.91;;;6.03;68.21
45888;BME280;31595;51.418;7.572;2023-01-27T03:17:30;100966.03;;;6.06;68.18
45888;BME280;31595;51.418;7.572;2023-01-27T03:20:16;100968.81;;;6.06;67.94
45888;BME280;31595;51.418;7.572;2023-01-27T03:22:47;100974.59;;;6.00;67.91
45888;BME280;31595;51.418;7.572;2023-01-27T03:25:14;100970.44;;;5.97;67.68
45888;BME280;31595;51.418;7.572;2023-01-27T03:27:42;100973.22;;;5.97;67.66
45888;BME280;31595;51.418;7.572;2023-01-27T03:30:10;100972.09;;;5.98;67.92
45888;BME280;31595;51.418;7.572;2023-01-27T03:32:38;100974.59;;;6.00;67.80
45888;BME280;31595;51.418;7.572;2023-01-27T03:35:12;100978.75;;;6.02;67.78
45888;BME280;31595;51.418;7.572;2023-01-27T03:37:41;100970.47;;;6.07;67.94
45888;BME280;31595;51.418;7.572;2023-01-27T03:40:27;100974.63;;;6.10;67.19
45888;BME280;31595;51.418;7.572;2023-01-27T03:43:12;100980.16;;;6.10;67.81
45888;BME280;31595;51.418;7.572;2023-01-27T03:45:57;100972.69;;;6.05;67.42
45888;BME280;31595;51.418;7.572;2023-01-27T03:48:43;100978.75;;;5.97;67.16
45888;BME280;31595;51.418;7.572;2023-01-27T03:51:12;100976.47;;;5.94;68.21
45888;BME280;31595;51.418;7.572;2023-01-27T03:53:39;100976.47;;;5.94;67.99
45888;BME280;31595;51.418;7.572;2023-01-27T03:56:07;100974.28;;;5.96;67.75
45888;BME280;31595;51.418;7.572;2023-01-27T03:58:35;100981.19;;;5.94;68.18
45888;BME280;31595;51.418;7.572;2023-01-27T04:01:04;100979.81;;;5.96;68.42
45888;BME280;31595;51.418;7.572;2023-01-27T04:03:34;100970.13;;;5.94;68.35
45888;BME280;31595;51.418;7.572;2023-01-27T04:06:22;100972.09;;;5.98;68.15
45888;BME280;31595;51.418;7.572;2023-01-27T04:09:08;100981.19;;;5.94;68.50
45888;BME280;31595;51.418;7.572;2023-01-27T04:11:36;100985.88;;;5.93;69.45
45888;BME280;31595;51.418;7.572;2023-01-27T04:14:25;100973.13;;;5.87;68.71
45888;BME280;31595;51.418;7.572;2023-01-27T04:16:55;100976.25;;;5.96;68.74
45888;BME280;31595;51.418;7.572;2023-01-27T04:19:22;100974.28;;;5.96;68.70
45888;BME280;31595;51.418;7.572;2023-01-27T04:21:52;100983.72;;;5.95;68.97
45888;BME280;31595;51.418;7.572;2023-01-27T04:24:20;100984.84;;;6.04;69.06
45888;BME280;31595;51.418;7.572;2023-01-27T04:26:54;100983.72;;;6.00;69.12
45888;BME280;31595;51.418;7.572;2023-01-27T04:29:23;100990.38;;;6.04;69.21
45888;BME280;31595;51.418;7.572;2023-01-27T04:31:54;100991.22;;;6.10;68.59
45888;BME280;31595;51.418;7.572;2023-01-27T04:34:22;100987.06;;;6.07;68.57
45888;BME280;31595;51.418;7.572;2023-01-27T04:36:51;100992.56;;;6.02;68.38
45888;BME280;31595;51.418;7.572;2023-01-27T04:39:18;101000.34;;;6.05;68.81
45888;BME280;31595;51.418;7.572;2023-01-27T04:41:46;100990.28;;;5.94;69.11
45888;BME280;31595;51.418;7.572;2023-01-27T04:44:14;100992.31;;;6.04;69.02
45888;BME280;31595;51.418;7.572;2023-01-27T04:46:43;100995.34;;;6.02;69.00
45888;BME280;31595;51.418;7.572;2023-01-27T04:49:10;100997.53;;;6.00;69.03
45888;BME280;31595;51.418;7.572;2023-01-27T04:51:37;101005.84;;;6.00;69.55
45888;BME280;31595;51.418;7.572;2023-01-27T04:54:06;100996.44;;;6.01;69.50
45888;BME280;31595;51.418;7.572;2023-01-27T04:56:35;101001.97;;;6.01;69.61
45888;BME280;31595;51.418;7.572;2023-01-27T04:59:04;100997.88;;;6.09;69.62
45888;BME280;31595;51.418;7.572;2023-01-27T05:01:31;101008.13;;;6.14;69.29
45888;BME280;31595;51.418;7.572;2023-01-27T05:04:01;101010.31;;;6.12;69.16
45888;BME280;31595;51.418;7.572;2023-01-27T05:06:31;101020.81;;;6.15;69.85
45888;BME280;31595;51.418;7.572;2023-01-27T05:08:58;101018.09;;;6.20;69.08
45888;BME280;31595;51.418;7.572;2023-01-27T05:11:27;101023.63;;;6.20;69.44
45888;BME280;31595;51.418;7.572;2023-01-27T05:14:00;101026.38;;;6.20;69.59
45888;BME280;31595;51.418;7.572;2023-01-27T05:16:27;101017.53;;;6.23;69.25
45888;BME280;31595;51.418;7.572;2023-01-27T05:18:54;101021.41;;;6.22;69.49
45888;BME280;31595;51.418;7.572;2023-01-27T05:21:23;101025.56;;;6.24;69.07
45888;BME280;31595;51.418;7.572;2023-01-27T05:23:53;101018.63;;;6.17;69.56
45888;BME280;31595;51.418;7.572;2023-01-27T05:26:21;101020.00;;;6.14;69.43
45888;BME280;31595;51.418;7.572;2023-01-27T05:28:51;101026.94;;;6.22;69.50
45888;BME280;31595;51.418;7.572;2023-01-27T05:31:20;101021.69;;;6.25;69.08
45888;BME280;31595;51.418;7.572;2023-01-27T05:33:49;101030.31;;;6.34;69.51
45888;BME280;31595;51.418;7.572;2023-01-27T05:36:19;101025.31;;;6.36;69.17
45888;BME280;31595;51.418;7.572;2023-01-27T05:38:46;101028.94;;;6.37;68.90
45888;BME280;31595;51.418;7.572;2023-01-27T05:41:15;101030.31;;;6.34;69.73
45888;BME280;31595;51.418;7.572;2023-01-27T05:43:43;101038.88;;;6.38;68.85
45888;BME280;31595;51.418;7.572;2023-01-27T05:46:14;101039.47;;;6.45;68.83
45888;BME280;31595;51.418;7.572;2023-01-27T05:48:43;101044.69;;;6.31;69.00
45888;BME280;31595;51.418;7.572;2023-01-27T05:51:12;101043.31;;;6.39;69.11
45888;BME280;31595;51.418;7.572;2023-01-27T05:53:41;101044.16;;;6.39;69.04
45888;BME280;31595;51.418;7.572;2023-01-27T05:56:09;101045.56;;;6.47;68.77
45888;BME280;31595;51.418;7.572;2023-01-27T05:58:37;101041.94;;;6.46;69.38
45888;BME280;31595;51.418;7.572;2023-01-27T06:01:09;101041.97;;;6.52;68.79
45888;BME280;31595;51.418;7.572;2023-01-27T06:03:38;101050.28;;;6.52;68.39
45888;BME280;31595;51.418;7.572;2023-01-27T06:06:06;101046.94;;;6.55;68.54
45888;BME280;31595;51.418;7.572;2023-01-27T06:08:35;101059.13;;;6.59;68.13
45888;BME280;31595;51.418;7.572;2023-01-27T06:11:02;101052.78;;;6.63;68.73
45888;BME280;31595;51.418;7.572;2023-01-27T06:13:30;101051.09;;;6.57;68.80
45888;BME280;31595;51.418;7.572;2023-01-27T06:16:00;101046.13;;;6.49;68.45
45888;BME280;31595;51.418;7.572;2023-01-27T06:18:27;101054.13;;;6.50;68.53
45888;BME280;31595;51.418;7.572;2023-01-27T06:20:57;101050.28;;;6.52;68.58
45888;BME280;31595;51.418;7.572;2023-01-27T06:23:25;101054.44;;;6.54;69.01
45888;BME280;31595;51.418;7.572;2023-01-27T06:25:54;101055.81;;;6.57;68.22
45888;BME280;31595;51.418;7.572;2023-01-27T06:28:21;101055.25;;;6.49;68.77
45888;BME280;31595;51.418;7.572;2023-01-27T06:30:49;101053.06;;;6.62;69.19
45888;BME280;31595;51.418;7.572;2023-01-27T06:33:17;101061.38;;;6.67;68.37
45888;BME280;31595;51.418;7.572;2023-01-27T06:35:45;101060.28;;;6.73;69.00
45888;BME280;31595;51.418;7.572;2023-01-27T06:38:13;101065.53;;;6.80;68.20
45888;BME280;31595;51.418;7.572;2023-01-27T06:40:41;101070.25;;;6.84;68.35
45888;BME280;31595;51.418;7.572;2023-01-27T06:43:10;101076.09;;;6.88;68.67
45888;BME280;31595;51.418;7.572;2023-01-27T06:45:38;101068.91;;;6.87;68.61
45888;BME280;31595;51.418;7.572;2023-01-27T06:48:06;101077.47;;;6.85;67.89
45888;BME280;31595;51.418;7.572;2023-01-27T06:50:35;101085.22;;;6.88;68.28
45888;BME280;31595;51.418;7.572;2023-01-27T06:53:04;101079.97;;;6.92;67.62
45888;BME280;31595;51.418;7.572;2023-01-27T06:55:33;101079.13;;;6.91;67.58
45888;BME280;31595;51.418;7.572;2023-01-27T06:58:06;101085.78;;;6.85;67.43
45888;BME280;31595;51.418;7.572;2023-01-27T07:00:34;101090.19;;;6.86;67.85
45888;BME280;31595;51.418;7.572;2023-01-27T07:03:02;101081.34;;;6.89;68.65
45888;BME280;31595;51.418;7.572;2023-01-27T07:05:30;101094.38;;;6.94;68.37
45888;BME280;31595;51.418;7.572;2023-01-27T07:07:57;101088.56;;;6.96;67.82
45888;BME280;31595;51.418;7.572;2023-01-27T07:10:25;101094.38;;;6.94;68.24
45888;BME280;31595;51.418;7.572;2023-01-27T07:13:02;101093.53;;;6.94;68.26
45888;BME280;31595;51.418;7.572;2023-01-27T07:15:30;101090.78;;;6.94;68.54
45888;BME280;31595;51.418;7.572;2023-01-27T07:17:58;101089.66;;;6.89;67.89
45888;BME280;31595;51.418;7.572;2023-01-27T07:20:25;101098.25;;;6.93;68.16
45888;BME280;31595;51.418;7.572;2023-01-27T07:22:55;101097.69;;;6.96;68.03
45888;BME280;31595;51.418;7.572;2023-01-27T07:25:23;101101.28;;;6.91;68.09
45888;BME280;31595;51.418;7.572;2023-01-27T07:27:50;101102.97;;;6.98;67.81
45888;BME280;31595;51.418;7.572;2023-01-27T07:30:19;101104.91;;;6.97;68.98
45888;BME280;31595;51.418;7.572;2023-01-27T07:32:46;101101.84;;;6.99;68.55
45888;BME280;31595;51.418;7.572;2023-01-27T07:35:15;101101.19;;;6.50;70.03
45888;BME280;31595;51.418;7.572;2023-01-27T07:37:43;101105.59;;;6.46;70.60
45888;BME280;31595;51.418;7.572;2023-01-27T07:40:11;101105.97;;;6.70;69.63
45888;BME280;31595;51.418;7.572;2023-01-27T07:42:39;101106.81;;;6.86;69.62
45888;BME280;31595;51.418;7.572;2023-01-27T07:45:07;101107.69;;;6.97;68.98
45888;BME280;31595;51.418;7.572;2023-01-27T07:47:36;101112.94;;;7.09;70.18
45888;BME280;31595;51.418;7.572;2023-01-27T07:50:04;101107.44;;;7.14;69.42
45888;BME280;31595;51.418;7.572;2023-01-27T07:52:32;101099.13;;;7.14;69.06
45888;BME280;31595;51.418;7.572;2023-01-27T07:54:59;101109.09;;;7.25;68.42
45888;BME280;31595;51.418;7.572;2023-01-27T07:57:26;101120.16;;;7.30;68.77
45888;BME280;31595;51.418;7.572;2023-01-27T07:59:53;101118.22;;;7.21;68.21
45888;BME280;31595;51.418;7.572;2023-01-27T08:02:21;101119.03;;;7.26;68.94
45888;BME280;31595;51.418;7.572;2023-01-27T08:04:51;101119.34;;;7.35;68.18
45888;BME280;31595;51.418;7.572;2023-01-27T08:07:18;101117.94;;;7.43;68.22
45888;BME280;31595;51.418;7.572;2023-01-27T08:09:46;101116.84;;;7.39;67.09
45888;BME280;31595;51.418;7.572;2023-01-27T08:12:13;101110.75;;;7.42;68.42
45888;BME280;31595;51.418;7.572;2023-01-27T08:14:40;101127.38;;;7.42;67.10
45888;BME280;31595;51.418;7.572;2023-01-27T08:17:07;101125.16;;;7.44;68.01
45888;BME280;31595;51.418;7.572;2023-01-27T08:19:35;101128.19;;;7.47;66.75
45888;BME280;31595;51.418;7.572;2023-01-27T08:22:03;101119.34;;;7.50;67.94
45888;BME280;31595;51.418;7.572;2023-01-27T08:24:30;101127.38;;;7.47;67.78
45888;BME280;31595;51.418;7.572;2023-01-27T08:26:58;101131.81;;;7.48;66.84
45888;BME280;31595;51.418;7.572;2023-01-27T08:29:25;101129.59;;;7.50;66.96
45888;BME280;31595;51.418;7.572;2023-01-27T08:31:54;101125.16;;;7.39;67.00
45888;BME280;31595;51.418;7.572;2023-01-27T08:34:21;101123.47;;;7.43;67.14
45888;BME280;31595;51.418;7.572;2023-01-27T08:36:48;101124.06;;;7.50;67.92
45888;BME280;31595;51.418;7.572;2023-01-27T08:39:17;101121.00;;;7.46;67.61
45888;BME280;31595;51.418;7.572;2023-01-27T08:41:44;101129.31;;;7.51;66.52
45888;BME280;31595;51.418;7.572;2023-01-27T08:44:12;101130.72;;;7.54;67.91
45888;BME280;31595;51.418;7.572;2023-01-27T08:46:39;101127.91;;;7.59;67.59
45888;BME280;31595;51.418;7.572;2023-01-27T08:49:06;101129.59;;;7.60;67.66
45888;BME280;31595;51.418;7.572;2023-01-27T08:51:34;101122.38;;;7.69;66.43
45888;BME280;31595;51.418;7.572;2023-01-27T08:54:01;101132.63;;;7.53;67.50
45888;BME280;31595;51.418;7.572;2023-01-27T08:56:30;101130.72;;;7.64;66.58
45888;BME280;31595;51.418;7.572;2023-01-27T08:58:57;101141.50;;;7.66;67.07
45888;BME280;31595;51.418;7.572;2023-01-27T09:01:25;101134.28;;;7.70;66.73
45888;BME280;31595;51.418;7.572;2023-01-27T09:03:53;101148.16;;;7.75;66.90
45888;BME280;31595;51.418;7.572;2023-01-27T09:06:20;101152.59;;;7.76;67.49
45888;BME280;31595;51.418;7.572;2023-01-27T09:08:47;101154.53;;;7.76;66.63
45888;BME280;31595;51.418;7.572;2023-01-27T09:11:35;101153.41;;;7.82;66.77
45888;BME280;31595;51.418;7.572;2023-01-27T09:14:02;101158.69;;;7.78;66.68
45888;BME280;31595;51.418;7.572;2023-01-27T09:16:30;101158.69;;;7.78;67.18
45888;BME280;31595;51.418;7.572;2023-01-27T09:18:57;101161.72;;;7.87;66.50
45888;BME280;31595;51.418;7.572;2023-01-27T09:21:25;101166.69;;;7.95;66.86
45888;BME280;31595;51.418;7.572;2023-01-27T09:23:52;101164.50;;;7.87;66.28
45888;BME280;31595;51.418;7.572;2023-01-27T09:26:19;101174.50;;;7.88;67.17
45888;BME280;31595;51.418;7.572;2023-01-27T09:28:48;101171.97;;;7.91;66.67
45888;BME280;31595;51.418;7.572;2023-01-27T09:31:15;101175.56;;;7.97;67.38
45888;BME280;31595;51.418;7.572;2023-01-27T09:33:43;101178.38;;;7.92;67.25
45888;BME280;31595;51.418;7.572;2023-01-27T09:36:13;101179.47;;;8.01;65.91
45888;BME280;31595;51.418;7.572;2023-01-27T09:38:46;101183.63;;;7.93;65.59
45888;BME280;31595;51.418;7.572;2023-01-27T09:44:40;101188.91;;;7.80;66.68
45888;BME280;31595;51.418;7.572;2023-01-27T09:47:23;101188.91;;;7.69;67.75
45888;BME280;31595;51.418;7.572;2023-01-27T09:50:07;101198.06;;;7.75;67.88
45888;BME280;31595;51.418;7.572;2023-01-27T09:53:01;101187.53;;;7.87;67.58
45888;BME280;31595;51.418;7.572;2023-01-27T09:55:39;101192.78;;;7.94;67.14
45888;BME280;31595;51.418;7.572;2023-01-27T09:58:17;101197.22;;;8.00;66.12
45888;BME280;31595;51.418;7.572;2023-01-27T10:00:59;101206.09;;;7.87;67.25
45888;BME280;31595;51.418;7.572;2023-01-27T10:03:41;101204.13;;;7.98;67.15
45888;BME280;31595;51.418;7.572;2023-01-27T10:09:34;101200.84;;;7.90;66.88
45888;BME280;31595;51.418;7.572;2023-01-27T10:12:15;101204.13;;;7.98;68.18
45888;BME280;31595;51.418;7.572;2023-01-27T10:14:53;101200.25;;;8.04;67.91
45888;BME280;31595;51.418;7.572;2023-01-27T10:17:33;101205.50;;;8.10;66.97
45888;BME280;31595;51.418;7.572;2023-01-27T10:20:24;101201.38;;;8.13;67.30
45888;BME280;31595;51.418;7.572;2023-01-27T10:23:02;101199.69;;;8.12;66.74
45888;BME280;31595;51.418;7.572;2023-01-27T10:25:47;101206.63;;;8.14;67.57
45888;BME280;31595;51.418;7.572;2023-01-27T10:28:21;101201.06;;;8.14;66.44
45888;BME280;31595;51.418;7.572;2023-01-27T10:30:57;101202.19;;;8.24;66.98
45888;BME280;31595;51.418;7.572;2023-01-27T10:33:34;101205.78;;;8.24;67.63
45888;BME280;31595;51.418;7.572;2023-01-27T10:36:08;101198.84;;;8.22;66.83
45888;BME280;31595;51.418;7.572;2023-01-27T10:38:45;101212.44;;;8.23;66.74
45888;BME280;31595;51.418;7.572;2023-01-27T10:41:22;101211.63;;;8.18;67.17
45888;BME280;31595;51.418;7.572;2023-01-27T10:44:08;101203.84;;;8.30;67.71
45888;BME280;31595;51.418;7.572;2023-01-27T10:46:50;101208.28;;;8.26;66.63
45888;BME280;31595;51.418;7.572;2023-01-27T10:49:24;101199.06;;;8.36;66.03
45888;BME280;31595;51.418;7.572;2023-01-27T10:51:59;101199.63;;;8.38;66.79
45888;BME280;31595;51.418;7.572;2023-01-27T10:54:33;101194.63;;;8.50;66.28
45888;BME280;31595;51.418;7.572;2023-01-27T10:57:06;101201.28;;;8.54;67.00
45888;BME280;31595;51.418;7.572;2023-01-27T10:59:39;101198.25;;;8.45;66.09
45888;BME280;31595;51.418;7.572;2023-01-27T11:02:14;101197.13;;;8.51;67.41
45888;BME280;31595;51.418;7.572;2023-01-27T11:04:48;101205.44;;;8.57;65.75
45888;BME280;31595;51.418;7.572;2023-01-27T11:07:19;101199.59;;;8.58;67.53
45888;BME280;31595;51.418;7.572;2023-01-27T11:09:51;101199.88;;;8.62;66.88
45888;BME280;31595;51.418;7.572;2023-01-27T11:12:24;101194.59;;;8.60;66.35
45888;BME280;31595;51.418;7.572;2023-01-27T11:14:55;101182.94;;;8.63;66.46
45888;BME280;31595;51.418;7.572;2023-01-27T11:17:27;101190.13;;;8.69;65.80
45888;BME280;31595;51.418;7.572;2023-01-27T11:20:03;101183.41;;;8.76;66.18
45888;BME280;31595;51.418;7.572;2023-01-27T11:22:36;101174.25;;;8.80;64.80
45888;BME280;31595;51.418;7.572;2023-01-27T11:25:16;101171.44;;;8.85;64.77
45888;BME280;31595;51.418;7.572;2023-01-27T11:27:57;101166.16;;;8.89;64.77
45888;BME280;31595;51.418;7.572;2023-01-27T11:30:32;101170.78;;;8.99;65.31
45888;BME280;31595;51.418;7.572;2023-01-27T11:33:10;101177.44;;;9.03;64.47
45888;BME280;31595;51.418;7.572;2023-01-27T11:35:45;101171.06;;;9.02;64.82
45888;BME280;31595;51.418;7.572;2023-01-27T11:38:15;101170.25;;;9.02;64.93
45888;BME280;31595;51.418;7.572;2023-01-27T11:40:45;101177.16;;;9.09;64.72
45888;BME280;31595;51.418;7.572;2023-01-27T11:43:17;101171.28;;;9.16;64.53
45888;BME280;31595;51.418;7.572;2023-01-27T11:45:47;101179.06;;;9.14;64.10
45888;BME280;31595;51.418;7.572;2023-01-27T11:48:16;101176.22;;;9.19;63.96
45888;BME280;31595;51.418;7.572;2023-01-27T11:50:47;101170.75;;;9.09;63.22
45888;BME280;31595;51.418;7.572;2023-01-27T11:53:19;101173.84;;;9.02;63.85
45888;BME280;31595;51.418;7.572;2023-01-27T11:55:50;101173.03;;;9.02;64.78
45888;BME280;31595;51.418;7.572;2023-01-27T11:58:22;101177.97;;;9.05;63.57
45888;BME280;31595;51.418;7.572;2023-01-27T12:00:54;101182.19;;;9.02;64.84
45888;BME280;31595;51.418;7.572;2023-01-27T12:03:28;101171.28;;;9.11;63.33
45888;BME280;31595;51.418;7.572;2023-01-27T12:06:03;101165.19;;;9.09;63.26
45888;BME280;31595;51.418;7.572;2023-01-27T12:08:39;101163.50;;;9.13;64.23
45888;BME280;31595;51.418;7.572;2023-01-27T12:11:21;101175.09;;;9.25;63.43
45888;BME280;31595;51.418;7.572;2023-01-27T12:13:50;101159.00;;;9.22;62.92
45888;BME280;31595;51.418;7.572;2023-01-27T12:16:18;101160.63;;;9.28;63.73
45888;BME280;31595;51.418;7.572;2023-01-27T12:18:50;101162.16;;;9.45;63.22
45888;BME280;31595;51.418;7.572;2023-01-27T12:21:20;101158.22;;;9.51;62.35
45888;BME280;31595;51.418;7.572;2023-01-27T12:23:59;101153.19;;;9.53;62.02
45888;BME280;31595;51.418;7.572;2023-01-27T12:26:34;101159.09;;;9.46;62.52
45888;BME280;31595;51.418;7.572;2023-01-27T12:29:05;101156.28;;;9.51;61.83
45888;BME280;31595;51.418;7.572;2023-01-27T12:31:43;101154.13;;;9.43;61.32
45888;BME280;31595;51.418;7.572;2023-01-27T12:34:24;101150.53;;;9.38;61.69
45888;BME280;31595;51.418;7.572;2023-01-27T12:36:55;101153.78;;;9.50;62.15
45888;BME280;31595;51.418;7.572;2023-01-27T12:39:35;101154.63;;;9.80;60.69
45888;BME280;31595;51.418;7.572;2023-01-27T12:42:32;101146.63;;;10.02;59.72
45888;BME280;31595;51.418;7.572;2023-01-27T12:44:59;101144.66;;;10.03;59.85
45888;BME280;31595;51.418;7.572;2023-01-27T12:47:28;101145.38;;;10.13;59.83
45888;BME280;31595;51.418;7.572;2023-01-27T12:50:19;101144.59;;;10.08;59.06
45888;BME280;31595;51.418;7.572;2023-01-27T12:53:05;101143.69;;;10.18;59.18
45888;BME280;31595;51.418;7.572;2023-01-27T12:55:39;101153.69;;;10.19;57.56
45888;BME280;31595;51.418;7.572;2023-01-27T12:58:27;101148.16;;;10.13;57.52
45888;BME280;31595;51.418;7.572;2023-01-27T13:00:56;101147.53;;;10.22;57.31
45888;BME280;31595;51.418;7.572;2023-01-27T13:03:24;101150.53;;;10.30;57.17
45888;BME280;31595;51.418;7.572;2023-01-27T13:05:53;101154.69;;;10.28;57.19
45888;BME280;31595;51.418;7.572;2023-01-27T13:08:24;101152.03;;;9.88;57.10
45888;BME280;31595;51.418;7.572;2023-01-27T13:10:55;101148.72;;;9.57;58.42
45888;BME280;31595;51.418;7.572;2023-01-27T13:13:25;101156.59;;;9.45;58.55
45888;BME280;31595;51.418;7.572;2023-01-27T13:15:55;101151.28;;;9.14;58.81
45888;BME280;31595;51.418;7.572;2023-01-27T13:18:24;101153.47;;;9.17;59.20
45888;BME280;31595;51.418;7.572;2023-01-27T13:20:55;101147.34;;;9.15;59.85
45888;BME280;31595;51.418;7.572;2023-01-27T13:23:29;101159.06;;;9.12;59.71
45888;BME280;31595;51.418;7.572;2023-01-27T13:26:12;101158.00;;;9.03;60.07
45888;BME280;31595;51.418;7.572;2023-01-27T13:28:45;101156.91;;;8.99;60.39
45888;BME280;31595;51.418;7.572;2023-01-27T13:31:18;101154.72;;;8.96;60.54